sensor_id;sensor_type;location;lat;lon;timestamp;P1;durP1;ratioP1;P2;durP2;ratioP2
66020;SDS011;52789;59.980;30.346;2022-10-31T00:01:59;1.03;;;0.93;;
66020;SDS011;52789;59.980;30.346;2022-10-31T00:04:24;1.30;;;1.03;;
66020;SDS011;52789;59.980;30.346;2022-10-31T00:06:50;1.63;;;1.13;;
66020;SDS011;52789;59.980;30.346;2022-10-31T00:09:15;2.30;;;1.20;;
66020;SDS011;52789;59.980;30.346;2022-10-31T00:11:41;1.30;;;1.20;;
66020;SDS011;52789;59.980;30.346;2022-10-31T00:14:09;2.80;;;1.10;;
66020;SDS011;52789;59.980;30.346;2022-10-31T00:16:34;3.03;;;1.00;;
66020;SDS011;52789;59.980;30.346;2022-10-31T00:19:01;1.20;;;1.10;;
66020;SDS011;52789;59.980;30.346;2022-10-31T00:21:29;1.00;;;1.00;;
66020;SDS011;52789;59.980;30.346;2022-10-31T00:23:56;2.13;;;1.03;;
66020;SDS011;52789;59.980;30.346;2022-10-31T00:26:22;3.77;;;1.40;;
66020;SDS011;52789;59.980;30.346;2022-10-31T00:28:47;2.13;;;1.03;;
66020;SDS011;52789;59.980;30.346;2022-10-31T00:31:14;2.17;;;1.10;;
66020;SDS011;52789;59.980;30.346;2022-10-31T00:33:40;1.87;;;1.10;;
66020;SDS011;52789;59.980;30.346;2022-10-31T00:36:07;2.70;;;1.23;;
66020;SDS011;52789;59.980;30.346;2022-10-31T00:38:33;2.87;;;1.30;;
66020;SDS011;52789;59.980;30.346;2022-10-31T00:40:58;2.13;;;1.10;;
66020;SDS011;52789;59.980;30.346;2022-10-31T00:43:24;1.00;;;0.90;;
66020;SDS011;52789;59.980;30.346;2022-10-31T00:45:49;2.70;;;1.67;;
66020;SDS011;52789;59.980;30.346;2022-10-31T00:48:15;2.10;;;1.20;;
66020;SDS011;52789;59.980;30.346;2022-10-31T00:50:41;1.80;;;1.30;;
66020;SDS011;52789;59.980;30.346;2022-10-31T00:53:07;1.47;;;1.20;;
66020;SDS011;52789;59.980;30.346;2022-10-31T00:55:33;2.67;;;1.23;;
66020;SDS011;52789;59.980;30.346;2022-10-31T00:57:59;1.10;;;1.00;;
66020;SDS011;52789;59.980;30.346;2022-10-31T01:00:24;2.90;;;1.30;;
66020;SDS011;52789;59.980;30.346;2022-10-31T01:02:51;5.10;;;2.80;;
66020;SDS011;52789;59.980;30.346;2022-10-31T01:05:16;3.87;;;1.30;;
66020;SDS011;52789;59.980;30.346;2022-10-31T01:07:42;1.10;;;1.00;;
66020;SDS011;52789;59.980;30.346;2022-10-31T01:10:09;1.30;;;1.20;;
66020;SDS011;52789;59.980;30.346;2022-10-31T01:12:35;1.07;;;0.93;;
66020;SDS011;52789;59.980;30.346;2022-10-31T01:15:03;1.70;;;1.10;;
66020;SDS011;52789;59.980;30.346;2022-10-31T01:17:29;3.53;;;1.20;;
66020;SDS011;52789;59.980;30.346;2022-10-31T01:19:56;1.20;;;1.10;;
66020;SDS011;52789;59.980;30.346;2022-10-31T01:22:22;1.67;;;1.40;;
66020;SDS011;52789;59.980;30.346;2022-10-31T01:24:47;7.53;;;1.33;;
66020;SDS011;52789;59.980;30.346;2022-10-31T01:27:13;1.93;;;1.50;;
66020;SDS011;52789;59.980;30.346;2022-10-31T01:29:38;2.10;;;1.20;;
66020;SDS011;52789;59.980;30.346;2022-10-31T01:32:04;1.47;;;1.30;;
66020;SDS011;52789;59.980;30.346;2022-10-31T01:34:29;1.27;;;1.17;;
66020;SDS011;52789;59.980;30.346;2022-10-31T01:36:55;2.60;;;1.13;;
66020;SDS011;52789;59.980;30.346;2022-10-31T01:39:21;1.20;;;1.10;;
66020;SDS011;52789;59.980;30.346;2022-10-31T01:41:47;1.50;;;1.40;;
66020;SDS011;52789;59.980;30.346;2022-10-31T01:49:11;2.70;;;1.23;;
66020;SDS011;52789;59.980;30.346;2022-10-31T01:51:44;1.27;;;1.17;;
66020;SDS011;52789;59.980;30.346;2022-10-31T01:54:13;1.20;;;1.10;;
66020;SDS011;52789;59.980;30.346;2022-10-31T01:56:42;1.20;;;1.10;;
66020;SDS011;52789;59.980;30.346;2022-10-31T01:59:13;1.37;;;1.27;;
66020;SDS011;52789;59.980;30.346;2022-10-31T02:01:43;3.10;;;1.20;;
66020;SDS011;52789;59.980;30.346;2022-10-31T02:04:08;1.80;;;1.30;;
66020;SDS011;52789;59.980;30.346;2022-10-31T02:06:47;1.50;;;1.17;;
66020;SDS011;52789;59.980;30.346;2022-10-31T02:09:18;1.40;;;1.30;;
66020;SDS011;52789;59.980;30.346;2022-10-31T02:11:49;1.40;;;1.30;;
66020;SDS011;52789;59.980;30.346;2022-10-31T02:14:17;1.87;;;1.30;;
66020;SDS011;52789;59.980;30.346;2022-10-31T02:19:12;1.57;;;1.30;;
66020;SDS011;52789;59.980;30.346;2022-10-31T02:22:09;3.30;;;1.40;;
66020;SDS011;52789;59.980;30.346;2022-10-31T02:24:52;6.60;;;1.57;;
66020;SDS011;52789;59.980;30.346;2022-10-31T02:36:27;1.53;;;1.30;;
66020;SDS011;52789;59.980;30.346;2022-10-31T02:39:11;1.50;;;1.30;;
66020;SDS011;52789;59.980;30.346;2022-10-31T02:44:51;1.60;;;1.50;;
66020;SDS011;52789;59.980;30.346;2022-10-31T02:47:32;1.50;;;1.37;;
66020;SDS011;52789;59.980;30.346;2022-10-31T02:52:37;2.17;;;1.63;;
66020;SDS011;52789;59.980;30.346;2022-10-31T02:57:48;1.40;;;1.30;;
66020;SDS011;52789;59.980;30.346;2022-10-31T03:00:14;1.30;;;1.20;;
66020;SDS011;52789;59.980;30.346;2022-10-31T03:08:35;2.90;;;1.20;;
66020;SDS011;52789;59.980;30.346;2022-10-31T03:11:06;2.70;;;1.30;;
66020;SDS011;52789;59.980;30.346;2022-10-31T03:13:41;1.60;;;1.20;;
66020;SDS011;52789;59.980;30.346;2022-10-31T03:19:15;2.37;;;2.17;;
66020;SDS011;52789;59.980;30.346;2022-10-31T03:21:53;3.63;;;1.67;;
66020;SDS011;52789;59.980;30.346;2022-10-31T03:24:24;2.57;;;1.37;;
66020;SDS011;52789;59.980;30.346;2022-10-31T03:26:55;3.43;;;1.20;;
66020;SDS011;52789;59.980;30.346;2022-10-31T03:29:25;2.70;;;1.20;;
66020;SDS011;52789;59.980;30.346;2022-10-31T03:31:59;4.17;;;1.63;;
66020;SDS011;52789;59.980;30.346;2022-10-31T03:34:31;2.37;;;1.37;;
66020;SDS011;52789;59.980;30.346;2022-10-31T03:36:57;6.80;;;1.63;;
66020;SDS011;52789;59.980;30.346;2022-10-31T03:39:28;2.27;;;1.13;;
66020;SDS011;52789;59.980;30.346;2022-10-31T03:41:56;1.83;;;1.40;;
66020;SDS011;52789;59.980;30.346;2022-10-31T03:44:24;4.63;;;1.60;;
66020;SDS011;52789;59.980;30.346;2022-10-31T03:46:54;4.63;;;2.07;;
66020;SDS011;52789;59.980;30.346;2022-10-31T03:49:20;5.67;;;1.83;;
66020;SDS011;52789;59.980;30.346;2022-10-31T03:51:54;1.67;;;1.40;;
66020;SDS011;52789;59.980;30.346;2022-10-31T03:54:27;3.10;;;1.70;;
66020;SDS011;52789;59.980;30.346;2022-10-31T03:57:01;4.47;;;2.27;;
66020;SDS011;52789;59.980;30.346;2022-10-31T03:59:34;1.80;;;1.53;;
66020;SDS011;52789;59.980;30.346;2022-10-31T04:02:08;8.13;;;2.70;;
66020;SDS011;52789;59.980;30.346;2022-10-31T04:04:39;8.77;;;1.57;;
66020;SDS011;52789;59.980;30.346;2022-10-31T04:07:06;3.97;;;1.30;;
66020;SDS011;52789;59.980;30.346;2022-10-31T04:09:35;2.53;;;1.43;;
66020;SDS011;52789;59.980;30.346;2022-10-31T04:12:03;2.90;;;1.37;;
66020;SDS011;52789;59.980;30.346;2022-10-31T04:14:34;2.40;;;1.70;;
66020;SDS011;52789;59.980;30.346;2022-10-31T04:19:41;1.57;;;1.30;;
66020;SDS011;52789;59.980;30.346;2022-10-31T04:22:07;4.63;;;1.63;;
66020;SDS011;52789;59.980;30.346;2022-10-31T04:24:32;2.30;;;1.53;;
66020;SDS011;52789;59.980;30.346;2022-10-31T04:26:58;2.47;;;1.43;;
66020;SDS011;52789;59.980;30.346;2022-10-31T04:29:23;1.90;;;1.60;;
66020;SDS011;52789;59.980;30.346;2022-10-31T04:31:49;6.50;;;2.03;;
66020;SDS011;52789;59.980;30.346;2022-10-31T04:34:14;1.70;;;1.57;;
66020;SDS011;52789;59.980;30.346;2022-10-31T04:36:40;1.77;;;1.50;;
66020;SDS011;52789;59.980;30.346;2022-10-31T04:39:05;2.90;;;1.30;;
66020;SDS011;52789;59.980;30.346;2022-10-31T04:41:31;1.73;;;1.53;;
66020;SDS011;52789;59.980;30.346;2022-10-31T04:43:56;3.70;;;1.53;;
66020;SDS011;52789;59.980;30.346;2022-10-31T04:46:22;5.23;;;1.67;;
66020;SDS011;52789;59.980;30.346;2022-10-31T04:48:48;3.93;;;1.80;;
66020;SDS011;52789;59.980;30.346;2022-10-31T04:51:14;3.17;;;2.23;;
66020;SDS011;52789;59.980;30.346;2022-10-31T04:53:39;2.07;;;1.40;;
66020;SDS011;52789;59.980;30.346;2022-10-31T04:56:05;4.67;;;1.57;;
66020;SDS011;52789;59.980;30.346;2022-10-31T04:58:30;2.07;;;1.50;;
66020;SDS011;52789;59.980;30.346;2022-10-31T05:00:56;4.07;;;1.40;;
66020;SDS011;52789;59.980;30.346;2022-10-31T05:03:21;5.20;;;2.07;;
66020;SDS011;52789;59.980;30.346;2022-10-31T05:05:47;5.27;;;1.53;;
66020;SDS011;52789;59.980;30.346;2022-10-31T05:08:13;4.93;;;1.67;;
66020;SDS011;52789;59.980;30.346;2022-10-31T05:10:44;1.90;;;1.53;;
66020;SDS011;52789;59.980;30.346;2022-10-31T05:13:10;2.33;;;1.63;;
66020;SDS011;52789;59.980;30.346;2022-10-31T05:15:36;3.20;;;1.57;;
66020;SDS011;52789;59.980;30.346;2022-10-31T05:18:01;3.67;;;1.60;;
66020;SDS011;52789;59.980;30.346;2022-10-31T05:20:28;1.33;;;1.23;;
66020;SDS011;52789;59.980;30.346;2022-10-31T05:22:55;1.85;;;1.45;;
66020;SDS011;52789;59.980;30.346;2022-10-31T05:25:23;2.40;;;1.53;;
66020;SDS011;52789;59.980;30.346;2022-10-31T05:30:21;2.37;;;1.70;;
66020;SDS011;52789;59.980;30.346;2022-10-31T05:32:49;6.23;;;2.00;;
66020;SDS011;52789;59.980;30.346;2022-10-31T05:35:21;4.57;;;1.73;;
66020;SDS011;52789;59.980;30.346;2022-10-31T05:37:54;2.67;;;2.10;;
66020;SDS011;52789;59.980;30.346;2022-10-31T05:40:20;3.43;;;2.03;;
66020;SDS011;52789;59.980;30.346;2022-10-31T05:42:47;6.33;;;2.33;;
66020;SDS011;52789;59.980;30.346;2022-10-31T05:45:16;4.20;;;2.30;;
66020;SDS011;52789;59.980;30.346;2022-10-31T05:47:42;5.40;;;2.00;;
66020;SDS011;52789;59.980;30.346;2022-10-31T05:50:14;5.70;;;2.27;;
66020;SDS011;52789;59.980;30.346;2022-10-31T05:52:40;3.43;;;1.73;;
66020;SDS011;52789;59.980;30.346;2022-10-31T05:55:06;5.03;;;2.17;;
66020;SDS011;52789;59.980;30.346;2022-10-31T05:57:31;5.23;;;2.87;;
66020;SDS011;52789;59.980;30.346;2022-10-31T05:59:58;5.33;;;1.97;;
66020;SDS011;52789;59.980;30.346;2022-10-31T06:02:24;4.30;;;2.00;;
66020;SDS011;52789;59.980;30.346;2022-10-31T06:04:53;6.87;;;2.50;;
66020;SDS011;52789;59.980;30.346;2022-10-31T06:07:18;2.80;;;1.50;;
66020;SDS011;52789;59.980;30.346;2022-10-31T06:09:44;7.20;;;2.07;;
66020;SDS011;52789;59.980;30.346;2022-10-31T06:12:11;3.50;;;1.70;;
66020;SDS011;52789;59.980;30.346;2022-10-31T06:14:37;4.00;;;2.57;;
66020;SDS011;52789;59.980;30.346;2022-10-31T06:17:02;8.77;;;3.10;;
66020;SDS011;52789;59.980;30.346;2022-10-31T06:19:27;7.90;;;2.23;;
66020;SDS011;52789;59.980;30.346;2022-10-31T06:21:53;2.30;;;1.53;;
66020;SDS011;52789;59.980;30.346;2022-10-31T06:24:19;2.10;;;1.80;;
66020;SDS011;52789;59.980;30.346;2022-10-31T06:26:44;4.27;;;2.17;;
66020;SDS011;52789;59.980;30.346;2022-10-31T06:29:10;4.07;;;1.57;;
66020;SDS011;52789;59.980;30.346;2022-10-31T06:31:35;5.43;;;1.90;;
66020;SDS011;52789;59.980;30.346;2022-10-31T06:34:00;2.70;;;1.70;;
66020;SDS011;52789;59.980;30.346;2022-10-31T06:36:26;2.83;;;1.70;;
66020;SDS011;52789;59.980;30.346;2022-10-31T06:38:51;3.70;;;2.20;;
66020;SDS011;52789;59.980;30.346;2022-10-31T06:41:17;4.13;;;1.70;;
66020;SDS011;52789;59.980;30.346;2022-10-31T06:43:45;2.07;;;1.63;;
66020;SDS011;52789;59.980;30.346;2022-10-31T06:46:12;7.57;;;1.53;;
66020;SDS011;52789;59.980;30.346;2022-10-31T06:48:37;4.87;;;2.20;;
66020;SDS011;52789;59.980;30.346;2022-10-31T06:51:03;8.57;;;2.17;;
66020;SDS011;52789;59.980;30.346;2022-10-31T06:53:28;6.13;;;2.83;;
66020;SDS011;52789;59.980;30.346;2022-10-31T06:55:57;6.57;;;1.90;;
66020;SDS011;52789;59.980;30.346;2022-10-31T06:58:23;3.83;;;1.58;;
66020;SDS011;52789;59.980;30.346;2022-10-31T07:00:49;34.90;;;4.73;;
66020;SDS011;52789;59.980;30.346;2022-10-31T07:03:17;5.80;;;1.63;;
66020;SDS011;52789;59.980;30.346;2022-10-31T07:05:43;2.83;;;1.60;;
66020;SDS011;52789;59.980;30.346;2022-10-31T07:08:10;4.67;;;1.60;;
66020;SDS011;52789;59.980;30.346;2022-10-31T07:10:39;3.55;;;1.80;;
66020;SDS011;52789;59.980;30.346;2022-10-31T07:13:11;1.73;;;1.50;;
66020;SDS011;52789;59.980;30.346;2022-10-31T07:15:38;8.47;;;1.70;;
66020;SDS011;52789;59.980;30.346;2022-10-31T07:18:06;9.40;;;1.80;;
66020;SDS011;52789;59.980;30.346;2022-10-31T07:20:35;4.07;;;1.67;;
66020;SDS011;52789;59.980;30.346;2022-10-31T07:23:04;5.87;;;1.87;;
66020;SDS011;52789;59.980;30.346;2022-10-31T07:25:30;2.90;;;1.50;;
66020;SDS011;52789;59.980;30.346;2022-10-31T07:27:56;3.53;;;2.23;;
66020;SDS011;52789;59.980;30.346;2022-10-31T07:30:21;7.70;;;2.40;;
66020;SDS011;52789;59.980;30.346;2022-10-31T07:32:48;7.13;;;2.50;;
66020;SDS011;52789;59.980;30.346;2022-10-31T07:35:15;9.23;;;2.00;;
66020;SDS011;52789;59.980;30.346;2022-10-31T07:37:45;7.30;;;2.08;;
66020;SDS011;52789;59.980;30.346;2022-10-31T07:40:10;3.33;;;2.20;;
66020;SDS011;52789;59.980;30.346;2022-10-31T07:42:38;13.27;;;3.53;;
66020;SDS011;52789;59.980;30.346;2022-10-31T07:45:05;10.10;;;2.17;;
66020;SDS011;52789;59.980;30.346;2022-10-31T07:47:44;7.60;;;2.10;;
66020;SDS011;52789;59.980;30.346;2022-10-31T07:50:12;5.00;;;2.10;;
66020;SDS011;52789;59.980;30.346;2022-10-31T07:52:40;17.07;;;3.50;;
66020;SDS011;52789;59.980;30.346;2022-10-31T07:55:06;7.53;;;2.13;;
66020;SDS011;52789;59.980;30.346;2022-10-31T07:57:32;7.20;;;2.07;;
66020;SDS011;52789;59.980;30.346;2022-10-31T07:59:58;4.70;;;2.00;;
66020;SDS011;52789;59.980;30.346;2022-10-31T08:02:23;5.10;;;2.27;;
66020;SDS011;52789;59.980;30.346;2022-10-31T08:04:49;3.67;;;2.13;;
66020;SDS011;52789;59.980;30.346;2022-10-31T08:07:15;3.43;;;2.13;;
66020;SDS011;52789;59.980;30.346;2022-10-31T08:09:41;13.23;;;2.73;;
66020;SDS011;52789;59.980;30.346;2022-10-31T08:12:08;5.17;;;1.83;;
66020;SDS011;52789;59.980;30.346;2022-10-31T08:14:33;3.70;;;2.23;;
66020;SDS011;52789;59.980;30.346;2022-10-31T08:16:59;4.03;;;2.10;;
66020;SDS011;52789;59.980;30.346;2022-10-31T08:19:25;6.03;;;2.00;;
66020;SDS011;52789;59.980;30.346;2022-10-31T08:21:50;4.47;;;2.17;;
66020;SDS011;52789;59.980;30.346;2022-10-31T08:24:17;4.43;;;2.00;;
66020;SDS011;52789;59.980;30.346;2022-10-31T08:26:43;3.93;;;2.80;;
66020;SDS011;52789;59.980;30.346;2022-10-31T08:29:08;6.30;;;2.87;;
66020;SDS011;52789;59.980;30.346;2022-10-31T08:31:34;1.90;;;1.70;;
66020;SDS011;52789;59.980;30.346;2022-10-31T08:34:00;5.20;;;2.40;;
66020;SDS011;52789;59.980;30.346;2022-10-31T08:36:26;5.87;;;2.20;;
66020;SDS011;52789;59.980;30.346;2022-10-31T08:38:52;3.17;;;1.53;;
66020;SDS011;52789;59.980;30.346;2022-10-31T08:41:17;5.13;;;1.97;;
66020;SDS011;52789;59.980;30.346;2022-10-31T08:43:43;4.13;;;2.60;;
66020;SDS011;52789;59.980;30.346;2022-10-31T08:46:08;3.77;;;2.10;;
66020;SDS011;52789;59.980;30.346;2022-10-31T08:48:34;3.90;;;2.30;;
66020;SDS011;52789;59.980;30.346;2022-10-31T08:50:59;16.03;;;2.00;;
66020;SDS011;52789;59.980;30.346;2022-10-31T08:53:25;5.33;;;1.83;;
66020;SDS011;52789;59.980;30.346;2022-10-31T08:55:53;4.70;;;2.77;;
66020;SDS011;52789;59.980;30.346;2022-10-31T08:58:20;6.15;;;3.42;;
66020;SDS011;52789;59.980;30.346;2022-10-31T09:00:47;2.63;;;1.63;;
66020;SDS011;52789;59.980;30.346;2022-10-31T09:03:16;5.93;;;1.90;;
66020;SDS011;52789;59.980;30.346;2022-10-31T09:05:43;4.43;;;1.80;;
66020;SDS011;52789;59.980;30.346;2022-10-31T09:08:09;5.23;;;2.17;;
66020;SDS011;52789;59.980;30.346;2022-10-31T09:10:39;5.93;;;3.30;;
66020;SDS011;52789;59.980;30.346;2022-10-31T09:13:09;3.50;;;1.70;;
66020;SDS011;52789;59.980;30.346;2022-10-31T09:15:39;3.47;;;1.90;;
66020;SDS011;52789;59.980;30.346;2022-10-31T09:18:06;3.03;;;1.60;;
66020;SDS011;52789;59.980;30.346;2022-10-31T09:20:33;6.00;;;2.10;;
66020;SDS011;52789;59.980;30.346;2022-10-31T09:23:18;4.17;;;2.47;;
66020;SDS011;52789;59.980;30.346;2022-10-31T09:25:47;5.73;;;2.50;;
66020;SDS011;52789;59.980;30.346;2022-10-31T09:28:15;3.37;;;1.80;;
66020;SDS011;52789;59.980;30.346;2022-10-31T09:30:45;6.33;;;2.00;;
66020;SDS011;52789;59.980;30.346;2022-10-31T09:35:38;3.30;;;1.70;;
66020;SDS011;52789;59.980;30.346;2022-10-31T09:38:05;5.87;;;1.80;;
66020;SDS011;52789;59.980;30.346;2022-10-31T09:52:02;4.53;;;1.77;;
66020;SDS011;52789;59.980;30.346;2022-10-31T09:56:59;5.40;;;1.70;;
66020;SDS011;52789;59.980;30.346;2022-10-31T09:59:28;3.47;;;1.90;;
66020;SDS011;52789;59.980;30.346;2022-10-31T10:02:06;3.47;;;1.50;;
66020;SDS011;52789;59.980;30.346;2022-10-31T10:07:43;3.58;;;1.42;;
66020;SDS011;52789;59.980;30.346;2022-10-31T10:10:29;4.23;;;1.60;;
66020;SDS011;52789;59.980;30.346;2022-10-31T10:15:33;5.47;;;1.63;;
66020;SDS011;52789;59.980;30.346;2022-10-31T10:30:17;2.17;;;1.90;;
66020;SDS011;52789;59.980;30.346;2022-10-31T10:32:47;9.03;;;2.00;;
66020;SDS011;52789;59.980;30.346;2022-10-31T10:35:27;1.60;;;1.20;;
66020;SDS011;52789;59.980;30.346;2022-10-31T10:38:08;4.10;;;1.40;;
66020;SDS011;52789;59.980;30.346;2022-10-31T10:40:43;3.73;;;1.70;;
66020;SDS011;52789;59.980;30.346;2022-10-31T10:54:43;5.67;;;2.57;;
66020;SDS011;52789;59.980;30.346;2022-10-31T11:02:46;2.80;;;2.50;;
66020;SDS011;52789;59.980;30.346;2022-10-31T11:05:26;6.27;;;2.00;;
66020;SDS011;52789;59.980;30.346;2022-10-31T11:07:58;5.17;;;1.47;;
66020;SDS011;52789;59.980;30.346;2022-10-31T11:10:23;8.73;;;4.00;;
66020;SDS011;52789;59.980;30.346;2022-10-31T11:18:29;6.20;;;1.80;;
66020;SDS011;52789;59.980;30.346;2022-10-31T11:20:58;3.17;;;1.80;;
66020;SDS011;52789;59.980;30.346;2022-10-31T11:23:26;8.50;;;1.98;;
66020;SDS011;52789;59.980;30.346;2022-10-31T11:26:00;7.10;;;2.80;;
66020;SDS011;52789;59.980;30.346;2022-10-31T11:28:28;4.60;;;2.97;;
66020;SDS011;52789;59.980;30.346;2022-10-31T11:30:58;10.70;;;5.13;;
66020;SDS011;52789;59.980;30.346;2022-10-31T11:33:28;5.07;;;2.50;;
66020;SDS011;52789;59.980;30.346;2022-10-31T11:35:57;6.77;;;2.10;;
66020;SDS011;52789;59.980;30.346;2022-10-31T11:38:24;4.53;;;2.20;;
66020;SDS011;52789;59.980;30.346;2022-10-31T11:40:58;7.57;;;3.43;;
66020;SDS011;52789;59.980;30.346;2022-10-31T11:43:31;5.87;;;2.27;;
66020;SDS011;52789;59.980;30.346;2022-10-31T11:45:56;6.77;;;2.10;;
66020;SDS011;52789;59.980;30.346;2022-10-31T11:48:22;6.50;;;2.03;;
66020;SDS011;52789;59.980;30.346;2022-10-31T11:50:59;5.10;;;1.60;;
66020;SDS011;52789;59.980;30.346;2022-10-31T11:53:28;3.13;;;2.00;;
66020;SDS011;52789;59.980;30.346;2022-10-31T11:58:40;5.90;;;2.07;;
66020;SDS011;52789;59.980;30.346;2022-10-31T12:01:08;6.43;;;2.50;;
66020;SDS011;52789;59.980;30.346;2022-10-31T12:04:04;9.00;;;1.87;;
66020;SDS011;52789;59.980;30.346;2022-10-31T12:06:36;4.70;;;1.53;;
66020;SDS011;52789;59.980;30.346;2022-10-31T12:09:16;4.07;;;2.20;;
66020;SDS011;52789;59.980;30.346;2022-10-31T12:17:21;7.50;;;2.73;;
66020;SDS011;52789;59.980;30.346;2022-10-31T12:22:51;6.53;;;2.10;;
66020;SDS011;52789;59.980;30.346;2022-10-31T12:25:28;6.73;;;1.77;;
66020;SDS011;52789;59.980;30.346;2022-10-31T12:28:14;3.43;;;1.80;;
66020;SDS011;52789;59.980;30.346;2022-10-31T12:37:07;7.17;;;2.40;;
66020;SDS011;52789;59.980;30.346;2022-10-31T12:39:53;6.07;;;2.37;;
66020;SDS011;52789;59.980;30.346;2022-10-31T12:45:04;4.27;;;2.33;;
66020;SDS011;52789;59.980;30.346;2022-10-31T12:50:52;4.83;;;1.87;;
66020;SDS011;52789;59.980;30.346;2022-10-31T12:53:39;2.50;;;1.80;;
66020;SDS011;52789;59.980;30.346;2022-10-31T12:58:59;7.63;;;2.07;;
66020;SDS011;52789;59.980;30.346;2022-10-31T13:01:37;3.80;;;2.90;;
66020;SDS011;52789;59.980;30.346;2022-10-31T13:06:50;3.53;;;1.93;;
66020;SDS011;52789;59.980;30.346;2022-10-31T13:09:22;9.17;;;2.80;;
66020;SDS011;52789;59.980;30.346;2022-10-31T13:12:17;5.93;;;1.87;;
66020;SDS011;52789;59.980;30.346;2022-10-31T13:14:50;7.50;;;2.50;;
66020;SDS011;52789;59.980;30.346;2022-10-31T13:20:13;5.63;;;2.10;;
66020;SDS011;52789;59.980;30.346;2022-10-31T13:22:42;4.27;;;2.30;;
66020;SDS011;52789;59.980;30.346;2022-10-31T13:25:15;3.67;;;1.73;;
66020;SDS011;52789;59.980;30.346;2022-10-31T13:28:01;4.77;;;1.97;;
66020;SDS011;52789;59.980;30.346;2022-10-31T13:30:33;8.23;;;2.17;;
66020;SDS011;52789;59.980;30.346;2022-10-31T13:33:29;4.93;;;2.50;;
66020;SDS011;52789;59.980;30.346;2022-10-31T13:38:52;6.50;;;2.87;;
66020;SDS011;52789;59.980;30.346;2022-10-31T13:41:26;5.40;;;2.70;;
66020;SDS011;52789;59.980;30.346;2022-10-31T13:46:50;6.30;;;2.50;;
66020;SDS011;52789;59.980;30.346;2022-10-31T13:54:51;12.43;;;4.30;;
66020;SDS011;52789;59.980;30.346;2022-10-31T14:00:13;8.23;;;3.13;;
66020;SDS011;52789;59.980;30.346;2022-10-31T14:02:50;8.50;;;2.97;;
66020;SDS011;52789;59.980;30.346;2022-10-31T14:07:53;4.90;;;2.00;;
66020;SDS011;52789;59.980;30.346;2022-10-31T14:10:26;3.83;;;1.80;;
66020;SDS011;52789;59.980;30.346;2022-10-31T14:15:42;9.63;;;2.73;;
66020;SDS011;52789;59.980;30.346;2022-10-31T14:18:36;5.83;;;2.53;;
66020;SDS011;52789;59.980;30.346;2022-10-31T14:23:48;5.93;;;3.17;;
66020;SDS011;52789;59.980;30.346;2022-10-31T14:28:50;4.47;;;2.40;;
66020;SDS011;52789;59.980;30.346;2022-10-31T14:31:27;6.47;;;2.37;;
66020;SDS011;52789;59.980;30.346;2022-10-31T14:50:30;3.80;;;2.47;;
66020;SDS011;52789;59.980;30.346;2022-10-31T14:52:57;12.37;;;2.77;;
66020;SDS011;52789;59.980;30.346;2022-10-31T14:55:29;5.20;;;3.13;;
66020;SDS011;52789;59.980;30.346;2022-10-31T14:58:05;6.93;;;3.47;;
66020;SDS011;52789;59.980;30.346;2022-10-31T15:00:32;7.93;;;4.27;;
66020;SDS011;52789;59.980;30.346;2022-10-31T15:06:25;8.07;;;4.77;;
66020;SDS011;52789;59.980;30.346;2022-10-31T15:08:40;8.70;;;3.87;;
66020;SDS011;52789;59.980;30.346;2022-10-31T15:11:13;8.67;;;3.43;;
66020;SDS011;52789;59.980;30.346;2022-10-31T15:13:52;6.93;;;3.13;;
66020;SDS011;52789;59.980;30.346;2022-10-31T15:16:23;7.53;;;2.90;;
66020;SDS011;52789;59.980;30.346;2022-10-31T15:18:55;5.53;;;2.83;;
66020;SDS011;52789;59.980;30.346;2022-10-31T15:21:24;12.93;;;3.87;;
66020;SDS011;52789;59.980;30.346;2022-10-31T15:23:53;6.07;;;3.67;;
66020;SDS011;52789;59.980;30.346;2022-10-31T15:26:22;15.93;;;5.80;;
66020;SDS011;52789;59.980;30.346;2022-10-31T15:29:02;9.40;;;4.40;;
66020;SDS011;52789;59.980;30.346;2022-10-31T15:31:30;8.67;;;3.90;;
66020;SDS011;52789;59.980;30.346;2022-10-31T15:33:58;14.30;;;4.53;;
66020;SDS011;52789;59.980;30.346;2022-10-31T15:36:31;8.30;;;3.97;;
66020;SDS011;52789;59.980;30.346;2022-10-31T15:38:57;11.60;;;3.20;;
66020;SDS011;52789;59.980;30.346;2022-10-31T15:44:27;8.87;;;2.90;;
66020;SDS011;52789;59.980;30.346;2022-10-31T15:55:18;11.37;;;4.67;;
66020;SDS011;52789;59.980;30.346;2022-10-31T15:57:51;12.70;;;7.20;;
66020;SDS011;52789;59.980;30.346;2022-10-31T16:00:29;7.60;;;5.53;;
66020;SDS011;52789;59.980;30.346;2022-10-31T16:08:22;10.03;;;4.90;;
66020;SDS011;52789;59.980;30.346;2022-10-31T16:10:49;6.77;;;4.17;;
66020;SDS011;52789;59.980;30.346;2022-10-31T16:13:17;10.07;;;5.03;;
66020;SDS011;52789;59.980;30.346;2022-10-31T16:15:49;6.40;;;4.10;;
66020;SDS011;52789;59.980;30.346;2022-10-31T16:18:17;11.00;;;3.57;;
66020;SDS011;52789;59.980;30.346;2022-10-31T16:20:47;8.37;;;4.63;;
66020;SDS011;52789;59.980;30.346;2022-10-31T16:23:16;7.50;;;4.57;;
66020;SDS011;52789;59.980;30.346;2022-10-31T16:25:42;9.70;;;4.60;;
66020;SDS011;52789;59.980;30.346;2022-10-31T16:28:21;20.80;;;5.30;;
66020;SDS011;52789;59.980;30.346;2022-10-31T16:30:50;12.57;;;3.63;;
66020;SDS011;52789;59.980;30.346;2022-10-31T16:33:26;7.90;;;3.78;;
66020;SDS011;52789;59.980;30.346;2022-10-31T16:35:52;8.67;;;5.03;;
66020;SDS011;52789;59.980;30.346;2022-10-31T16:40:46;13.07;;;3.53;;
66020;SDS011;52789;59.980;30.346;2022-10-31T16:43:14;9.23;;;3.90;;
66020;SDS011;52789;59.980;30.346;2022-10-31T16:45:45;11.87;;;4.40;;
66020;SDS011;52789;59.980;30.346;2022-10-31T16:48:14;7.63;;;4.15;;
66020;SDS011;52789;59.980;30.346;2022-10-31T16:50:42;6.17;;;3.13;;
66020;SDS011;52789;59.980;30.346;2022-10-31T16:53:09;12.97;;;4.10;;
66020;SDS011;52789;59.980;30.346;2022-10-31T16:55:41;6.50;;;3.27;;
66020;SDS011;52789;59.980;30.346;2022-10-31T16:58:13;7.50;;;3.67;;
66020;SDS011;52789;59.980;30.346;2022-10-31T17:00:41;9.00;;;3.40;;
66020;SDS011;52789;59.980;30.346;2022-10-31T17:03:07;7.80;;;3.07;;
66020;SDS011;52789;59.980;30.346;2022-10-31T17:05:33;9.40;;;3.23;;
66020;SDS011;52789;59.980;30.346;2022-10-31T17:07:58;9.57;;;2.40;;
66020;SDS011;52789;59.980;30.346;2022-10-31T17:10:27;6.33;;;3.17;;
66020;SDS011;52789;59.980;30.346;2022-10-31T17:12:54;10.47;;;3.60;;
66020;SDS011;52789;59.980;30.346;2022-10-31T17:15:26;10.70;;;6.90;;
66020;SDS011;52789;59.980;30.346;2022-10-31T17:17:53;9.63;;;5.33;;
66020;SDS011;52789;59.980;30.346;2022-10-31T17:20:26;11.47;;;5.47;;
66020;SDS011;52789;59.980;30.346;2022-10-31T17:22:53;12.27;;;4.50;;
66020;SDS011;52789;59.980;30.346;2022-10-31T17:25:20;7.40;;;3.60;;
66020;SDS011;52789;59.980;30.346;2022-10-31T17:27:48;8.97;;;4.37;;
66020;SDS011;52789;59.980;30.346;2022-10-31T17:30:14;6.97;;;3.90;;
66020;SDS011;52789;59.980;30.346;2022-10-31T17:32:43;6.40;;;3.55;;
66020;SDS011;52789;59.980;30.346;2022-10-31T17:35:09;7.40;;;3.37;;
66020;SDS011;52789;59.980;30.346;2022-10-31T17:37:37;9.83;;;3.50;;
66020;SDS011;52789;59.980;30.346;2022-10-31T17:40:08;6.97;;;3.20;;
66020;SDS011;52789;59.980;30.346;2022-10-31T17:42:37;7.63;;;4.17;;
66020;SDS011;52789;59.980;30.346;2022-10-31T17:45:04;7.03;;;4.17;;
66020;SDS011;52789;59.980;30.346;2022-10-31T17:47:30;15.23;;;4.90;;
66020;SDS011;52789;59.980;30.346;2022-10-31T17:49:56;11.43;;;4.20;;
66020;SDS011;52789;59.980;30.346;2022-10-31T17:52:22;16.53;;;6.10;;
66020;SDS011;52789;59.980;30.346;2022-10-31T17:54:47;25.60;;;12.80;;
66020;SDS011;52789;59.980;30.346;2022-10-31T17:57:13;15.33;;;6.07;;